createdAt,value
2023-05-18T00:02:26.103Z,98.80
2023-05-18T00:04:53.835Z,98.46
2023-05-18T00:07:22.207Z,98.66
2023-05-18T00:09:49.870Z,98.88
2023-05-18T00:12:17.514Z,99.08
2023-05-18T00:14:45.088Z,99.54
2023-05-18T00:17:14.613Z,99.44
2023-05-18T00:19:42.635Z,99.60
2023-05-18T00:22:10.872Z,99.68
2023-05-18T00:24:38.442Z,99.96
2023-05-18T00:27:05.934Z,99.84
2023-05-18T00:29:33.614Z,99.89
2023-05-18T00:32:01.325Z,99.83
2023-05-18T00:34:29.463Z,100.00
2023-05-18T00:36:57.034Z,100.00
2023-05-18T00:39:24.777Z,100.00
2023-05-18T00:41:52.622Z,100.00
2023-05-18T00:44:20.185Z,100.00
2023-05-18T00:46:48.031Z,100.00
2023-05-18T00:49:15.536Z,100.00
2023-05-18T00:51:43.267Z,100.00
2023-05-18T00:54:10.925Z,100.00
2023-05-18T00:56:41.807Z,100.00
2023-05-18T00:59:11.526Z,100.00
2023-05-18T01:01:43.580Z,100.00
2023-05-18T01:04:14.060Z,100.00
2023-05-18T01:06:43.323Z,100.00
2023-05-18T01:09:11.845Z,100.00
2023-05-18T01:12:12.873Z,100.00
2023-05-18T01:14:45.276Z,100.00
2023-05-18T01:17:43.879Z,100.00
2023-05-18T01:20:37.578Z,100.00
2023-05-18T01:23:51.936Z,100.00
2023-05-18T01:26:38.273Z,100.00
2023-05-18T01:29:09.777Z,100.00
2023-05-18T01:31:37.369Z,100.00
2023-05-18T01:34:05.171Z,100.00
2023-05-18T01:36:32.760Z,100.00
2023-05-18T01:39:01.580Z,100.00
2023-05-18T01:41:30.302Z,100.00
2023-05-18T01:44:06.231Z,100.00
2023-05-18T01:46:43.246Z,100.00
2023-05-18T01:49:17.114Z,100.00
2023-05-18T01:51:46.233Z,100.00
2023-05-18T01:54:16.712Z,100.00
2023-05-18T01:56:44.362Z,100.00
2023-05-18T01:59:14.495Z,100.00
2023-05-18T02:01:42.217Z,100.00
2023-05-18T02:04:10.621Z,100.00
2023-05-18T02:06:38.528Z,100.00
2023-05-18T02:09:07.053Z,100.00
2023-05-18T02:11:34.571Z,100.00
2023-05-18T02:14:02.695Z,100.00
2023-05-18T02:16:30.921Z,100.00
2023-05-18T02:18:59.896Z,100.00
2023-05-18T02:21:27.607Z,100.00
2023-05-18T02:23:55.097Z,100.00
2023-05-18T02:26:22.523Z,100.00
2023-05-18T02:28:53.034Z,100.00
2023-05-18T02:31:21.692Z,100.00
2023-05-18T02:33:49.091Z,100.00
2023-05-18T02:36:18.180Z,100.00
2023-05-18T02:38:46.032Z,100.00
2023-05-18T02:41:13.546Z,100.00
2023-05-18T02:43:41.247Z,100.00
2023-05-18T02:46:09.062Z,100.00
2023-05-18T02:48:36.634Z,100.00
2023-05-18T02:51:04.797Z,100.00
2023-05-18T02:53:33.731Z,100.00
2023-05-18T02:56:06.118Z,100.00
2023-05-18T02:58:43.617Z,100.00
2023-05-18T03:01:17.928Z,100.00
2023-05-18T03:03:49.134Z,100.00
2023-05-18T03:06:16.841Z,100.00
2023-05-18T03:08:44.743Z,100.00
2023-05-18T03:11:12.670Z,100.00
2023-05-18T03:13:40.877Z,100.00
2023-05-18T03:16:08.395Z,100.00
2023-05-18T03:18:36.607Z,100.00
2023-05-18T03:21:05.516Z,100.00
2023-05-18T03:23:34.465Z,100.00
2023-05-18T03:26:03.674Z,100.00
2023-05-18T03:28:31.650Z,100.00
2023-05-18T03:31:00.103Z,100.00
2023-05-18T03:33:28.332Z,99.74
2023-05-18T03:35:55.799Z,96.95
2023-05-18T03:38:23.339Z,93.18
2023-05-18T03:40:57.085Z,89.03
2023-05-18T03:43:25.817Z,85.02
2023-05-18T03:45:53.443Z,81.38
2023-05-18T03:48:21.362Z,78.24
2023-05-18T03:50:49.111Z,74.74
2023-05-18T03:53:21.285Z,70.94
2023-05-18T03:55:49.265Z,67.04
2023-05-18T03:58:19.825Z,64.31
2023-05-18T04:00:49.162Z,62.95
2023-05-18T04:03:17.977Z,60.27
2023-05-18T04:05:46.173Z,59.23
2023-05-18T04:08:14.429Z,56.87
2023-05-18T04:10:43.265Z,53.76
2023-05-18T04:13:11.258Z,52.83
2023-05-18T04:15:38.941Z,50.83
2023-05-18T04:18:08.132Z,50.11
2023-05-18T04:20:37.877Z,48.98
2023-05-18T04:23:05.733Z,48.60
2023-05-18T04:25:33.797Z,47.79
2023-05-18T04:28:02.862Z,46.12
2023-05-18T04:30:30.803Z,44.96
2023-05-18T04:32:59.838Z,44.60
2023-05-18T04:35:28.381Z,44.05
2023-05-18T04:37:56.139Z,42.81
2023-05-18T04:40:25.281Z,42.58
2023-05-18T04:42:53.286Z,41.99
2023-05-18T04:45:25.950Z,41.89
2023-05-18T04:47:55.155Z,41.47
2023-05-18T04:50:23.742Z,41.04
2023-05-18T04:52:53.039Z,40.99
2023-05-18T04:55:27.091Z,41.62
2023-05-18T04:58:12.104Z,40.78
2023-05-18T05:00:40.532Z,40.15
2023-05-18T05:03:08.384Z,39.50
2023-05-18T05:05:36.619Z,39.12
2023-05-18T05:08:06.396Z,39.35
2023-05-18T05:10:34.392Z,39.55
2023-05-18T05:13:02.344Z,39.82
2023-05-18T05:15:30.763Z,39.13
2023-05-18T05:17:59.440Z,38.80
2023-05-18T05:20:27.400Z,39.14
2023-05-18T05:22:55.335Z,38.21
2023-05-18T05:25:25.818Z,38.17
2023-05-18T05:27:53.978Z,37.77
2023-05-18T05:30:22.379Z,37.71
2023-05-18T05:32:50.449Z,38.04
2023-05-18T05:35:18.467Z,37.37
2023-05-18T05:37:47.005Z,36.67
2023-05-18T05:40:15.832Z,36.16
2023-05-18T05:42:46.370Z,36.20
2023-05-18T05:45:14.415Z,35.97
2023-05-18T05:47:49.381Z,35.93
2023-05-18T05:50:18.353Z,36.13
2023-05-18T05:52:47.844Z,36.46
2023-05-18T05:55:15.856Z,36.05
2023-05-18T05:57:43.819Z,35.92
2023-05-18T06:00:12.715Z,35.62
2023-05-18T06:02:49.106Z,35.14
2023-05-18T06:05:22.484Z,35.18
2023-05-18T06:07:51.064Z,35.29
2023-05-18T06:10:19.996Z,34.96
2023-05-18T06:12:48.154Z,34.56
2023-05-18T06:15:16.160Z,34.36
2023-05-18T06:17:43.846Z,34.04
2023-05-18T06:20:13.676Z,34.39
2023-05-18T06:22:41.736Z,33.74
2023-05-18T06:25:24.318Z,33.54
2023-05-18T06:28:18.200Z,33.31
2023-05-18T06:30:49.659Z,32.85
2023-05-18T06:33:31.001Z,32.76
2023-05-18T06:35:58.870Z,32.54
2023-05-18T06:38:26.783Z,32.00
2023-05-18T06:40:55.523Z,31.28
2023-05-18T06:43:26.658Z,30.22
2023-05-18T06:46:04.263Z,30.75
2023-05-18T06:48:39.185Z,31.63
2023-05-18T06:51:07.535Z,31.82
2023-05-18T06:53:35.842Z,31.35
2023-05-18T06:56:04.786Z,30.59
2023-05-18T06:58:33.103Z,30.50
2023-05-18T07:01:04.015Z,30.80
2023-05-18T07:03:33.242Z,30.86
2023-05-18T07:06:01.798Z,31.07
2023-05-18T07:08:30.364Z,30.58
2023-05-18T07:10:59.148Z,30.34
2023-05-18T07:13:27.229Z,29.84
2023-05-18T07:15:54.985Z,30.34
2023-05-18T07:18:22.797Z,30.74
2023-05-18T07:20:50.804Z,29.49
2023-05-18T07:23:19.152Z,29.03
2023-05-18T07:25:47.237Z,29.68
2023-05-18T07:28:14.966Z,29.33
2023-05-18T07:30:43.028Z,29.25
2023-05-18T07:33:10.771Z,28.03
2023-05-18T07:35:38.753Z,28.51
2023-05-18T07:38:06.508Z,27.33
2023-05-18T07:40:34.452Z,28.08
2023-05-18T07:43:02.058Z,28.05
2023-05-18T07:45:30.369Z,27.96
2023-05-18T07:47:58.700Z,28.09
2023-05-18T07:50:26.737Z,28.43
2023-05-18T07:52:55.211Z,29.02
2023-05-18T07:55:23.368Z,29.60
2023-05-18T07:57:51.897Z,29.51
2023-05-18T08:00:20.319Z,29.27
2023-05-18T08:02:48.393Z,29.03
2023-05-18T08:05:18.311Z,29.30
2023-05-18T08:07:46.569Z,29.12
2023-05-18T08:10:14.193Z,29.65
2023-05-18T08:12:42.357Z,30.17
2023-05-18T08:15:11.722Z,30.06
2023-05-18T08:17:39.729Z,30.80
2023-05-18T08:20:08.881Z,29.44
2023-05-18T08:22:37.009Z,28.50
2023-05-18T08:25:05.020Z,28.57
2023-05-18T08:27:33.238Z,29.09
2023-05-18T08:30:01.530Z,27.98
2023-05-18T08:32:30.650Z,28.41
2023-05-18T08:34:58.414Z,28.74
2023-05-18T08:37:29.290Z,28.76
2023-05-18T08:39:57.174Z,28.80
2023-05-18T08:42:54.288Z,28.65
2023-05-18T08:45:31.607Z,29.06
2023-05-18T08:48:00.715Z,29.11
2023-05-18T08:50:31.186Z,28.84
2023-05-18T08:53:04.013Z,28.55
2023-05-18T08:55:36.696Z,28.83
2023-05-18T08:58:06.910Z,29.16
2023-05-18T09:00:35.400Z,29.25
2023-05-18T09:03:04.493Z,28.79
2023-05-18T09:05:33.012Z,28.26
2023-05-18T09:08:01.087Z,28.62
2023-05-18T09:10:29.063Z,28.31
2023-05-18T09:12:57.792Z,28.53
2023-05-18T09:15:27.892Z,28.06
2023-05-18T09:17:56.224Z,27.19
2023-05-18T09:20:24.021Z,27.36
2023-05-18T09:22:52.229Z,27.05
2023-05-18T09:25:20.554Z,27.63
2023-05-18T09:27:48.880Z,28.62
2023-05-18T09:30:17.365Z,28.04
2023-05-18T09:32:48.318Z,27.80
2023-05-18T09:35:16.179Z,27.52
2023-05-18T09:37:44.852Z,27.48
2023-05-18T09:40:13.117Z,27.59
2023-05-18T09:42:42.801Z,27.48
2023-05-18T09:45:23.939Z,27.90
2023-05-18T09:47:51.795Z,28.12
2023-05-18T09:50:23.858Z,28.40
2023-05-18T09:52:52.084Z,28.65
2023-05-18T09:55:20.185Z,28.46
2023-05-18T09:57:49.206Z,28.01
2023-05-18T10:00:18.970Z,28.00
2023-05-18T10:02:49.157Z,27.67
2023-05-18T10:05:26.377Z,27.67
2023-05-18T10:07:54.578Z,28.38
2023-05-18T10:10:24.461Z,28.20
2023-05-18T10:12:52.810Z,27.71
2023-05-18T10:15:22.152Z,27.83
2023-05-18T10:17:50.808Z,28.34
2023-05-18T10:20:20.537Z,28.91
2023-05-18T10:22:49.114Z,28.97
2023-05-18T10:25:19.711Z,28.85
2023-05-18T10:27:51.354Z,27.68
2023-05-18T10:30:19.171Z,27.62
2023-05-18T10:32:48.013Z,28.08
2023-05-18T10:35:15.903Z,28.12
2023-05-18T10:37:48.581Z,27.67
2023-05-18T10:40:17.022Z,27.67
2023-05-18T10:42:46.145Z,27.92
2023-05-18T10:45:15.125Z,27.76
2023-05-18T10:47:43.843Z,27.82
2023-05-18T10:50:11.798Z,28.03
2023-05-18T10:52:39.697Z,28.33
2023-05-18T10:55:08.854Z,28.29
2023-05-18T10:57:39.726Z,28.53
2023-05-18T11:00:09.328Z,28.34
2023-05-18T11:02:42.071Z,28.13
2023-05-18T11:05:10.484Z,28.05
2023-05-18T11:07:38.759Z,27.84
2023-05-18T11:10:10.807Z,27.69
2023-05-18T11:12:38.628Z,27.44
2023-05-18T11:15:07.616Z,27.59
2023-05-18T11:17:36.494Z,27.56
2023-05-18T11:20:12.688Z,27.70
2023-05-18T11:22:42.373Z,28.06
2023-05-18T11:25:10.088Z,28.62
2023-05-18T11:27:39.056Z,28.79
2023-05-18T11:30:27.400Z,28.18
2023-05-18T11:33:18.860Z,27.93
2023-05-18T11:36:09.061Z,27.65
2023-05-18T11:38:45.882Z,27.96
2023-05-18T11:41:36.469Z,27.43
2023-05-18T11:44:16.176Z,27.87
2023-05-18T11:46:56.813Z,27.73
2023-05-18T11:49:29.285Z,27.34
2023-05-18T11:51:58.920Z,28.20
2023-05-18T11:54:27.095Z,27.90
2023-05-18T11:56:55.236Z,28.00
2023-05-18T11:59:42.788Z,27.60
2023-05-18T12:02:33.849Z,26.38
2023-05-18T12:05:02.214Z,26.29
2023-05-18T12:07:32.036Z,26.63
2023-05-18T12:10:04.440Z,27.39
2023-05-18T12:12:33.714Z,28.03
2023-05-18T12:15:05.226Z,28.40
2023-05-18T12:17:43.631Z,27.57
2023-05-18T12:20:18.720Z,26.98
2023-05-18T12:22:52.893Z,26.98
2023-05-18T12:25:21.580Z,27.02
2023-05-18T12:27:49.533Z,27.42
2023-05-18T12:30:34.236Z,28.63
2023-05-18T12:33:02.188Z,27.42
2023-05-18T12:35:30.341Z,27.10
2023-05-18T12:38:00.211Z,26.97
2023-05-18T12:40:28.406Z,27.09
2023-05-18T12:42:57.999Z,27.81
2023-05-18T12:45:26.981Z,27.22
2023-05-18T12:47:55.175Z,26.86
2023-05-18T12:50:24.694Z,27.05
2023-05-18T12:52:52.376Z,27.94
2023-05-18T12:55:24.925Z,27.64
2023-05-18T12:58:03.765Z,27.50
2023-05-18T13:00:32.631Z,27.92
2023-05-18T13:03:13.823Z,27.96
2023-05-18T13:05:45.105Z,27.40
2023-05-18T13:08:17.681Z,27.91
2023-05-18T13:10:45.606Z,27.69
2023-05-18T13:13:16.724Z,27.26
2023-05-18T13:15:44.463Z,27.16
2023-05-18T13:18:12.586Z,27.33
2023-05-18T13:20:51.185Z,27.75
2023-05-18T13:23:21.236Z,27.35
2023-05-18T13:25:48.904Z,27.38
2023-05-18T13:28:17.680Z,27.47
2023-05-18T13:30:45.747Z,27.21
2023-05-18T13:33:14.609Z,27.14
2023-05-18T13:35:42.591Z,27.11
2023-05-18T13:38:11.274Z,26.85
2023-05-18T13:40:39.433Z,27.07
2023-05-18T13:43:07.077Z,27.92
2023-05-18T13:45:37.531Z,28.22
2023-05-18T13:48:09.242Z,27.58
2023-05-18T13:50:37.452Z,26.91
2023-05-18T13:53:06.212Z,26.14
2023-05-18T13:55:34.280Z,26.14
2023-05-18T13:58:01.783Z,25.80
2023-05-18T14:00:32.821Z,25.38
2023-05-18T14:03:00.943Z,26.68
2023-05-18T14:05:28.927Z,27.46
2023-05-18T14:07:56.689Z,26.79
2023-05-18T14:10:24.572Z,26.61
2023-05-18T14:12:52.051Z,26.76
2023-05-18T14:15:19.732Z,26.67
2023-05-18T14:17:47.339Z,26.38
2023-05-18T14:20:14.951Z,26.11
2023-05-18T14:22:43.636Z,26.13
2023-05-18T14:25:11.119Z,26.40
2023-05-18T14:27:39.178Z,26.35
2023-05-18T14:30:07.460Z,26.17
2023-05-18T14:32:35.255Z,26.47
2023-05-18T14:35:03.482Z,27.38
2023-05-18T14:37:32.553Z,27.64
2023-05-18T14:40:00.147Z,27.81
2023-05-18T14:42:27.807Z,27.31
2023-05-18T14:44:55.521Z,27.19
2023-05-18T14:47:23.000Z,27.18
2023-05-18T14:49:50.428Z,27.21
2023-05-18T14:52:18.159Z,27.40
2023-05-18T14:54:47.575Z,27.59
2023-05-18T14:57:15.039Z,27.26
2023-05-18T14:59:43.221Z,26.91
2023-05-18T15:02:10.973Z,27.20
2023-05-18T15:04:38.690Z,26.78
2023-05-18T15:07:06.620Z,26.89
2023-05-18T15:09:34.603Z,27.01
2023-05-18T15:12:02.079Z,26.94
2023-05-18T15:14:30.114Z,27.05
2023-05-18T15:16:58.491Z,26.87
2023-05-18T15:19:26.589Z,26.37
2023-05-18T15:21:54.875Z,26.69
2023-05-18T15:24:22.501Z,27.05
2023-05-18T15:26:50.275Z,26.91
2023-05-18T15:29:17.773Z,27.05
2023-05-18T15:31:46.632Z,27.11
2023-05-18T15:34:14.054Z,27.43
2023-05-18T15:36:41.921Z,27.12
2023-05-18T15:39:09.489Z,27.55
2023-05-18T15:41:37.253Z,27.74
2023-05-18T15:44:05.173Z,27.69
2023-05-18T15:46:35.397Z,27.97
2023-05-18T15:49:03.775Z,27.80
2023-05-18T15:51:31.499Z,27.77
2023-05-18T15:53:59.114Z,28.13
2023-05-18T15:56:27.011Z,28.40
2023-05-18T15:58:54.584Z,28.59
2023-05-18T16:01:22.125Z,28.87
2023-05-18T16:03:49.759Z,28.86
2023-05-18T16:06:17.640Z,29.11
2023-05-18T16:08:48.441Z,29.16
2023-05-18T16:11:15.983Z,29.64
2023-05-18T16:13:43.682Z,29.72
2023-05-18T16:16:13.946Z,30.36
2023-05-18T16:18:42.208Z,30.82
2023-05-18T16:21:10.114Z,30.71
2023-05-18T16:23:37.790Z,31.18
2023-05-18T16:26:05.827Z,31.15
2023-05-18T16:28:33.292Z,31.48
2023-05-18T16:31:02.944Z,31.61
2023-05-18T16:33:30.468Z,31.93
2023-05-18T16:35:57.988Z,32.66
2023-05-18T16:38:25.485Z,33.38
2023-05-18T16:40:53.092Z,33.33
2023-05-18T16:43:21.010Z,33.65
2023-05-18T16:45:48.569Z,33.84
2023-05-18T16:48:16.361Z,34.28
2023-05-18T16:50:44.151Z,34.84
2023-05-18T16:53:12.225Z,35.81
2023-05-18T16:55:39.830Z,36.91
2023-05-18T16:58:07.434Z,37.89
2023-05-18T17:00:35.295Z,38.93
2023-05-18T17:03:03.122Z,39.27
2023-05-18T17:05:31.262Z,39.65
2023-05-18T17:07:58.996Z,39.83
2023-05-18T17:10:26.809Z,40.04
2023-05-18T17:12:54.993Z,41.19
2023-05-18T17:15:22.430Z,42.10
2023-05-18T17:17:50.023Z,42.40
2023-05-18T17:20:17.985Z,42.14
2023-05-18T17:22:46.290Z,42.68
2023-05-18T17:25:13.779Z,43.04
2023-05-18T17:27:41.622Z,43.37
2023-05-18T17:30:09.349Z,43.73
2023-05-18T17:32:38.528Z,43.60
2023-05-18T17:35:10.647Z,43.62
2023-05-18T17:37:40.934Z,43.50
2023-05-18T17:40:09.482Z,43.73
2023-05-18T17:42:37.203Z,44.90
2023-05-18T17:45:04.947Z,45.36
2023-05-18T17:47:33.058Z,44.82
2023-05-18T17:50:00.830Z,47.05
2023-05-18T17:52:28.800Z,47.97
2023-05-18T17:54:57.152Z,48.27
2023-05-18T17:57:25.115Z,48.72
2023-05-18T17:59:52.909Z,49.17
2023-05-18T18:02:20.636Z,50.07
2023-05-18T18:04:48.660Z,50.76
2023-05-18T18:07:16.579Z,51.79
2023-05-18T18:09:44.466Z,51.65
2023-05-18T18:12:12.444Z,51.62
2023-05-18T18:14:40.270Z,51.83
2023-05-18T18:17:08.525Z,51.68
2023-05-18T18:19:36.419Z,52.08
2023-05-18T18:22:04.850Z,51.99
2023-05-18T18:24:32.867Z,51.81
2023-05-18T18:27:00.859Z,51.79
2023-05-18T18:29:31.064Z,51.33
2023-05-18T18:31:58.691Z,51.31
2023-05-18T18:34:26.305Z,51.66
2023-05-18T18:36:54.503Z,51.80
2023-05-18T18:39:22.258Z,51.86
2023-05-18T18:41:50.000Z,51.86
2023-05-18T18:44:17.618Z,51.44
2023-05-18T18:46:46.332Z,51.57
2023-05-18T18:49:14.408Z,51.45
2023-05-18T18:51:42.404Z,51.84
2023-05-18T18:54:10.851Z,52.51
2023-05-18T18:56:38.962Z,52.61
2023-05-18T18:59:06.892Z,52.79
2023-05-18T19:01:37.164Z,52.65
2023-05-18T19:04:05.133Z,52.91
2023-05-18T19:06:34.383Z,52.19
2023-05-18T19:09:03.960Z,52.01
2023-05-18T19:11:31.440Z,51.69
2023-05-18T19:13:59.437Z,51.97
2023-05-18T19:16:27.067Z,51.75
2023-05-18T19:18:54.669Z,52.63
2023-05-18T19:21:25.236Z,52.86
2023-05-18T19:23:52.778Z,52.65
2023-05-18T19:26:21.352Z,52.95
2023-05-18T19:28:48.914Z,53.15
2023-05-18T19:31:16.855Z,53.88
2023-05-18T19:33:44.654Z,54.38
2023-05-18T19:36:13.472Z,54.16
2023-05-18T19:38:41.392Z,55.94
2023-05-18T19:41:09.039Z,56.68
2023-05-18T19:43:36.740Z,56.29
2023-05-18T19:46:05.184Z,57.03
2023-05-18T19:48:33.107Z,57.17
2023-05-18T19:51:03.675Z,57.54
2023-05-18T19:53:31.514Z,57.06
2023-05-18T19:55:59.699Z,57.12
2023-05-18T19:58:27.119Z,57.73
2023-05-18T20:00:57.205Z,56.99
2023-05-18T20:03:26.163Z,57.43
2023-05-18T20:05:54.702Z,57.03
2023-05-18T20:08:22.150Z,57.36
2023-05-18T20:10:49.655Z,57.07
2023-05-18T20:13:18.039Z,57.56
2023-05-18T20:15:46.766Z,57.22
2023-05-18T20:18:14.549Z,56.84
2023-05-18T20:20:42.446Z,56.81
2023-05-18T20:23:11.183Z,57.28
2023-05-18T20:25:38.972Z,57.63
2023-05-18T20:28:07.178Z,57.28
2023-05-18T20:30:35.154Z,57.48
2023-05-18T20:33:04.492Z,57.44
2023-05-18T20:35:32.690Z,57.29
2023-05-18T20:38:01.579Z,57.16
2023-05-18T20:40:32.920Z,57.20
2023-05-18T20:43:02.030Z,57.47
2023-05-18T20:45:29.764Z,57.97
2023-05-18T20:47:57.535Z,58.31
2023-05-18T20:50:25.739Z,58.64
2023-05-18T20:52:53.425Z,57.88
2023-05-18T20:55:20.990Z,57.68
2023-05-18T20:57:51.387Z,57.93
2023-05-18T21:00:19.638Z,57.54
2023-05-18T21:02:48.484Z,57.76
2023-05-18T21:05:16.695Z,57.60
2023-05-18T21:07:44.626Z,57.58
2023-05-18T21:10:12.261Z,57.80
2023-05-18T21:12:40.541Z,57.64
2023-05-18T21:15:08.549Z,58.00
2023-05-18T21:17:37.611Z,57.55
2023-05-18T21:20:06.960Z,57.53
2023-05-18T21:22:34.681Z,58.23
2023-05-18T21:25:05.834Z,57.96
2023-05-18T21:27:33.667Z,57.53
2023-05-18T21:30:01.221Z,57.11
2023-05-18T21:32:29.302Z,57.51
2023-05-18T21:34:56.864Z,57.52
2023-05-18T21:37:25.286Z,56.82
2023-05-18T21:39:52.873Z,56.89
2023-05-18T21:42:20.636Z,56.87
2023-05-18T21:44:48.161Z,57.34
2023-05-18T21:47:16.045Z,56.98
2023-05-18T21:49:43.980Z,56.76
2023-05-18T21:52:11.435Z,56.99
2023-05-18T21:54:39.166Z,57.15
2023-05-18T21:57:06.606Z,57.66
2023-05-18T21:59:34.089Z,57.29
2023-05-18T22:02:01.905Z,57.16
2023-05-18T22:04:29.886Z,57.27
2023-05-18T22:06:57.400Z,57.08
2023-05-18T22:09:25.134Z,57.25
2023-05-18T22:11:52.633Z,57.23
2023-05-18T22:14:20.097Z,57.13
2023-05-18T22:16:47.803Z,57.61
2023-05-18T22:19:15.426Z,57.26
2023-05-18T22:21:43.053Z,57.26
2023-05-18T22:24:10.653Z,57.18
2023-05-18T22:26:39.022Z,58.00
2023-05-18T22:29:06.569Z,58.34
2023-05-18T22:31:34.456Z,58.20
2023-05-18T22:34:02.538Z,58.26
2023-05-18T22:36:30.135Z,58.48
2023-05-18T22:38:57.876Z,58.45
2023-05-18T22:41:26.749Z,58.60
2023-05-18T22:43:54.715Z,58.77
2023-05-18T22:46:22.295Z,58.70
2023-05-18T22:48:50.207Z,58.85
2023-05-18T22:51:18.576Z,58.81
2023-05-18T22:53:46.472Z,58.91
2023-05-18T22:56:18.415Z,58.84
2023-05-18T22:58:45.939Z,59.21
2023-05-18T23:01:13.733Z,59.12
2023-05-18T23:03:41.373Z,59.47
2023-05-18T23:06:08.889Z,59.21
2023-05-18T23:08:37.295Z,59.52
2023-05-18T23:11:05.713Z,59.53
2023-05-18T23:13:37.240Z,59.83
2023-05-18T23:16:05.488Z,59.72
2023-05-18T23:18:33.105Z,60.13
2023-05-18T23:21:00.924Z,60.33
2023-05-18T23:23:28.733Z,60.74
2023-05-18T23:25:57.004Z,60.84
2023-05-18T23:28:25.290Z,61.21
2023-05-18T23:30:52.867Z,61.42
2023-05-18T23:33:21.929Z,61.51
2023-05-18T23:35:49.592Z,61.60
2023-05-18T23:38:18.463Z,61.73
2023-05-18T23:40:46.462Z,61.98
2023-05-18T23:43:14.884Z,62.57
2023-05-18T23:45:42.920Z,62.67
2023-05-18T23:48:11.177Z,63.06
2023-05-18T23:50:38.782Z,63.21
2023-05-18T23:53:06.749Z,63.73
2023-05-18T23:55:34.241Z,63.30
2023-05-18T23:58:02.145Z,63.94
